Time;durP1;ratioP1;P1;durP2;ratioP2;P2;SDS_P1;SDS_P2;PMS_P1;PMS_P2;Temp;Humidity;BMP_temperature;BMP_pressure;BME280_temperature;BME280_humidity;BME280_pressure;Samples;Min_cycle;Max_cycle;Signal;HPM_P1;HPM_P2
2023/01/07 00:01:39;;;;;;;107.93;55.38;;;;;;;;;;4897927;29;20127;-71
2023/01/07 00:04:09;;;;;;;115.10;53.40;;;;;;;;;;4897728;29;20047;-72
2023/01/07 00:06:38;;;;;;;107.53;49.15;;;;;;;;;;4898347;29;20056;-72
2023/01/07 00:09:06;;;;;;;76.70;42.28;;;;;;;;;;4897657;29;20558;-72
2023/01/07 00:11:35;;;;;;;73.00;41.83;;;;;;;;;;4897826;29;20489;-71
2023/01/07 00:14:03;;;;;;;70.30;41.50;;;;;;;;;;4897871;29;20414;-71
2023/01/07 00:16:31;;;;;;;77.07;41.03;;;;;;;;;;4899293;29;20082;-71
2023/01/07 00:18:58;;;;;;;72.72;40.78;;;;;;;;;;4899591;29;20048;-71
2023/01/07 00:21:25;;;;;;;68.47;40.17;;;;;;;;;;4892205;29;20056;-71
2023/01/07 00:24:00;;;;;;;69.90;41.55;;;;;;;;;;4897580;29;20127;-70
2023/01/07 00:26:29;;;;;;;69.30;38.47;;;;;;;;;;4897498;29;20039;-73
2023/01/07 00:28:57;;;;;;;72.28;39.00;;;;;;;;;;4896294;29;20029;-71
2023/01/07 00:31:29;;;;;;;77.55;40.67;;;;;;;;;;4898034;29;20024;-72
2023/01/07 00:36:26;;;;;;;74.50;41.70;;;;;;;;;;4897467;29;20104;-72
2023/01/07 00:39:04;;;;;;;69.38;39.40;;;;;;;;;;4897036;29;20041;-70
2023/01/07 00:41:30;;;;;;;82.38;42.08;;;;;;;;;;4892145;29;20025;-71
2023/01/07 00:43:56;;;;;;;76.75;41.60;;;;;;;;;;4891118;29;20033;-70
2023/01/07 00:46:22;;;;;;;80.65;44.30;;;;;;;;;;4895846;29;20057;-71
2023/01/07 00:48:48;;;;;;;86.40;44.95;;;;;;;;;;4896936;29;20051;-72
2023/01/07 00:51:16;;;;;;;87.60;46.65;;;;;;;;;;4897427;29;20036;-72
2023/01/07 00:53:43;;;;;;;76.65;42.45;;;;;;;;;;4896046;29;20035;-70
2023/01/07 00:56:09;;;;;;;90.68;46.72;;;;;;;;;;4895986;29;20095;-71
2023/01/07 00:58:37;;;;;;;98.18;48.85;;;;;;;;;;4895023;29;20032;-71
2023/01/07 01:01:03;;;;;;;93.80;47.85;;;;;;;;;;4895651;29;20032;-71
2023/01/07 01:03:31;;;;;;;98.13;47.67;;;;;;;;;;4880008;29;20052;-72
2023/01/07 01:06:05;;;;;;;73.75;40.10;;;;;;;;;;4893661;29;20037;-72
2023/01/07 01:08:31;;;;;;;94.20;43.47;;;;;;;;;;4895144;29;20032;-71
2023/01/07 01:11:02;;;;;;;80.03;43.25;;;;;;;;;;4895333;29;20096;-71
2023/01/07 01:13:28;;;;;;;66.13;35.95;;;;;;;;;;4895627;29;20044;-70
2023/01/07 01:15:54;;;;;;;79.55;39.17;;;;;;;;;;4879912;29;20546;-71
2023/01/07 01:18:20;;;;;;;79.18;40.60;;;;;;;;;;4896982;29;20124;-71
2023/01/07 01:20:46;;;;;;;88.63;42.60;;;;;;;;;;4895667;29;20028;-71
2023/01/07 01:23:11;;;;;;;94.15;43.90;;;;;;;;;;4894729;29;20447;-71
2023/01/07 01:25:38;;;;;;;84.03;43.35;;;;;;;;;;4892809;29;20049;-71
2023/01/07 01:28:04;;;;;;;79.95;41.65;;;;;;;;;;4895235;29;20427;-72
2023/01/07 01:30:30;;;;;;;88.05;44.58;;;;;;;;;;4894514;29;20028;-71
2023/01/07 01:32:57;;;;;;;83.22;43.67;;;;;;;;;;4895721;29;20115;-72
2023/01/07 01:35:24;;;;;;;85.38;43.45;;;;;;;;;;4897621;29;20100;-71
2023/01/07 01:37:50;;;;;;;83.32;41.38;;;;;;;;;;4898688;29;20439;-71
2023/01/07 01:40:16;;;;;;;72.93;37.88;;;;;;;;;;4896419;29;20104;-71
2023/01/07 01:42:42;;;;;;;69.97;36.95;;;;;;;;;;4897604;29;20066;-71
2023/01/07 01:45:12;;;;;;;65.00;35.50;;;;;;;;;;4895782;29;20032;-70
2023/01/07 01:47:52;;;;;;;59.95;33.08;;;;;;;;;;4895933;29;20116;-71
2023/01/07 01:50:30;;;;;;;59.97;32.45;;;;;;;;;;4896444;29;20076;-71
2023/01/07 01:53:09;;;;;;;54.40;30.73;;;;;;;;;;4896569;29;20048;-72
2023/01/07 01:55:44;;;;;;;60.53;33.50;;;;;;;;;;4896694;29;20039;-71
2023/01/07 01:58:17;;;;;;;73.45;37.88;;;;;;;;;;4897110;29;20128;-71
2023/01/07 02:00:43;;;;;;;38.35;23.35;;;;;;;;;;4895742;29;20039;-72
2023/01/07 02:03:16;;;;;;;38.40;20.83;;;;;;;;;;4895859;29;20144;-71
2023/01/07 02:05:43;;;;;;;30.17;18.60;;;;;;;;;;4896066;29;20033;-71
2023/01/07 02:08:09;;;;;;;31.30;17.02;;;;;;;;;;4896034;29;20506;-72
2023/01/07 02:10:37;;;;;;;24.63;15.20;;;;;;;;;;4898873;29;20145;-72
2023/01/07 02:13:16;;;;;;;24.00;14.18;;;;;;;;;;4899437;29;20028;-71
2023/01/07 02:16:17;;;;;;;22.23;13.15;;;;;;;;;;4900611;29;20164;-72
2023/01/07 02:18:57;;;;;;;23.83;13.13;;;;;;;;;;4909239;29;20560;-71
2023/01/07 02:21:36;;;;;;;24.13;14.18;;;;;;;;;;4918910;29;20123;-72
2023/01/07 02:24:30;;;;;;;21.15;13.20;;;;;;;;;;4920264;29;20042;-71
2023/01/07 02:27:09;;;;;;;23.02;13.63;;;;;;;;;;4918093;29;20092;-71
2023/01/07 02:30:09;;;;;;;22.70;12.43;;;;;;;;;;4917970;29;20064;-71
2023/01/07 02:32:57;;;;;;;24.63;13.90;;;;;;;;;;4918380;29;20092;-71
2023/01/07 02:35:32;;;;;;;25.92;13.05;;;;;;;;;;4918173;29;20122;-71
2023/01/07 02:38:35;;;;;;;29.30;15.02;;;;;;;;;;4918524;29;20040;-71
2023/01/07 02:41:21;;;;;;;26.02;15.00;;;;;;;;;;4918763;29;20040;-72
2023/01/07 02:44:11;;;;;;;33.75;17.30;;;;;;;;;;4918704;29;20036;-71
2023/01/07 02:46:58;;;;;;;29.73;17.20;;;;;;;;;;4918125;29;20508;-71
2023/01/07 02:49:23;;;;;;;33.17;16.70;;;;;;;;;;4919078;29;20043;-71
2023/01/07 02:51:50;;;;;;;28.70;15.95;;;;;;;;;;4917477;29;20035;-71
2023/01/07 02:54:22;;;;;;;32.97;18.25;;;;;;;;;;4917754;29;20088;-71
2023/01/07 02:57:20;;;;;;;35.80;18.67;;;;;;;;;;4917766;29;20043;-71
2023/01/07 03:00:14;;;;;;;34.78;20.25;;;;;;;;;;4897021;29;20044;-71
2023/01/07 03:03:12;;;;;;;;;;;;;;;;;;4889957;29;20055;-71
2023/01/07 03:05:50;;;;;;;43.70;20.58;;;;;;;;;;4886926;29;20380;-71
2023/01/07 03:08:37;;;;;;;30.15;16.95;;;;;;;;;;4918499;29;20044;-71
2023/01/07 03:11:06;;;;;;;35.13;17.65;;;;;;;;;;4918400;29;20107;-70
2023/01/07 03:13:39;;;;;;;26.40;16.25;;;;;;;;;;4917352;29;20030;-71
2023/01/07 03:16:22;;;;;;;30.05;16.67;;;;;;;;;;4917464;29;20056;-71
2023/01/07 03:18:55;;;;;;;27.75;16.35;;;;;;;;;;4918610;29;20044;-71
2023/01/07 03:21:22;;;;;;;23.02;13.52;;;;;;;;;;4916501;29;20474;-71
2023/01/07 03:23:54;;;;;;;24.83;15.32;;;;;;;;;;4917369;29;20032;-70
2023/01/07 03:26:25;;;;;;;33.63;15.95;;;;;;;;;;4918519;29;20044;-71
2023/01/07 03:28:52;;;;;;;33.60;16.73;;;;;;;;;;4917543;29;20048;-72
2023/01/07 03:31:21;;;;;;;30.40;17.33;;;;;;;;;;4917340;29;20037;-70
2023/01/07 03:33:53;;;;;;;31.77;16.88;;;;;;;;;;4917218;29;20032;-71
2023/01/07 03:36:23;;;;;;;34.00;18.05;;;;;;;;;;4917093;29;20067;-71
2023/01/07 03:38:51;;;;;;;30.38;15.95;;;;;;;;;;4917181;29;20544;-72
2023/01/07 03:44:03;;;;;;;26.27;15.93;;;;;;;;;;4918426;29;20032;-71
2023/01/07 03:46:29;;;;;;;28.08;15.85;;;;;;;;;;4917998;29;20375;-71
2023/01/07 03:48:55;;;;;;;38.50;18.92;;;;;;;;;;4918160;29;20040;-71
2023/01/07 03:51:21;;;;;;;29.08;16.15;;;;;;;;;;4916890;29;20024;-72
2023/01/07 03:53:47;;;;;;;25.52;14.65;;;;;;;;;;4916358;29;20462;-71
2023/01/07 03:56:13;;;;;;;27.73;14.07;;;;;;;;;;4917619;29;20020;-71
2023/01/07 03:58:40;;;;;;;27.23;15.23;;;;;;;;;;4918451;29;20043;-71
2023/01/07 04:01:06;;;;;;;27.83;15.55;;;;;;;;;;4917844;29;20371;-71
2023/01/07 04:03:32;;;;;;;28.95;14.45;;;;;;;;;;4916458;29;20055;-71
2023/01/07 04:05:58;;;;;;;27.20;13.55;;;;;;;;;;4916555;29;20036;-71
2023/01/07 04:08:24;;;;;;;24.52;13.85;;;;;;;;;;4917947;29;20409;-71
2023/01/07 04:10:50;;;;;;;26.17;14.07;;;;;;;;;;4916146;29;20024;-71
2023/01/07 04:13:16;;;;;;;24.20;13.57;;;;;;;;;;4916172;29;20072;-71
2023/01/07 04:15:44;;;;;;;24.15;13.70;;;;;;;;;;4916175;29;20028;-71
2023/01/07 04:18:11;;;;;;;20.70;12.80;;;;;;;;;;4916413;29;20456;-71
2023/01/07 04:20:36;;;;;;;27.58;15.02;;;;;;;;;;4917496;29;20103;-71
2023/01/07 04:23:03;;;;;;;26.73;15.38;;;;;;;;;;4916347;29;20036;-71
2023/01/07 04:25:31;;;;;;;25.77;14.88;;;;;;;;;;4917766;29;20039;-71
2023/01/07 04:27:58;;;;;;;28.38;15.68;;;;;;;;;;4915888;29;20031;-71
2023/01/07 04:30:24;;;;;;;26.60;14.45;;;;;;;;;;4917653;29;20107;-72
2023/01/07 04:32:50;;;;;;;26.17;15.00;;;;;;;;;;4916466;29;20032;-71
2023/01/07 04:35:17;;;;;;;26.92;13.73;;;;;;;;;;4915906;29;20032;-71
2023/01/07 04:37:42;;;;;;;23.10;14.18;;;;;;;;;;4916030;29;20035;-72
2023/01/07 04:40:09;;;;;;;27.20;14.35;;;;;;;;;;4915501;29;20119;-71
2023/01/07 04:42:36;;;;;;;22.90;12.75;;;;;;;;;;4915715;29;20047;-71
2023/01/07 04:45:02;;;;;;;25.10;14.45;;;;;;;;;;4915709;29;20024;-70
2023/01/07 04:47:28;;;;;;;28.80;15.90;;;;;;;;;;4916949;29;20055;-71
2023/01/07 04:49:55;;;;;;;28.45;15.07;;;;;;;;;;4915599;29;20028;-71
2023/01/07 04:52:21;;;;;;;30.45;16.75;;;;;;;;;;4915916;29;20088;-70
2023/01/07 04:54:47;;;;;;;33.70;18.73;;;;;;;;;;4917005;29;20074;-71
2023/01/07 04:57:13;;;;;;;30.77;18.45;;;;;;;;;;4915865;29;20131;-71
2023/01/07 04:59:42;;;;;;;28.27;17.55;;;;;;;;;;4916850;29;20032;-71
2023/01/07 05:02:08;;;;;;;29.10;16.75;;;;;;;;;;4915599;29;20069;-71
2023/01/07 05:04:34;;;;;;;29.77;16.45;;;;;;;;;;4915434;29;20040;-71
2023/01/07 05:07:01;;;;;;;27.17;15.82;;;;;;;;;;4898308;29;20037;-70
2023/01/07 05:09:26;;;;;;;31.80;16.52;;;;;;;;;;4896902;29;20024;-70
2023/01/07 05:11:52;;;;;;;34.88;18.65;;;;;;;;;;4896628;29;20037;-70
2023/01/07 05:14:18;;;;;;;37.75;19.60;;;;;;;;;;4897559;29;20041;-71
2023/01/07 05:16:47;;;;;;;68.65;34.63;;;;;;;;;;4896327;29;20399;-71
2023/01/07 05:19:12;;;;;;;52.30;26.77;;;;;;;;;;4896544;29;20028;-71
2023/01/07 05:21:42;;;;;;;39.85;19.45;;;;;;;;;;4896331;29;20037;-71
2023/01/07 05:24:09;;;;;;;29.40;17.80;;;;;;;;;;4896580;29;20041;-71
2023/01/07 05:26:35;;;;;;;29.77;15.60;;;;;;;;;;4896322;29;20083;-71
2023/01/07 05:29:02;;;;;;;35.42;17.60;;;;;;;;;;4893247;29;20032;-71
2023/01/07 05:31:27;;;;;;;36.45;18.55;;;;;;;;;;4894809;29;20439;-71
2023/01/07 05:33:53;;;;;;;37.28;19.95;;;;;;;;;;4893555;29;20044;-71
2023/01/07 05:36:19;;;;;;;37.25;19.27;;;;;;;;;;4877643;29;20029;-71
2023/01/07 05:38:46;;;;;;;34.13;17.75;;;;;;;;;;4877046;29;20033;-71
2023/01/07 05:41:11;;;;;;;34.22;18.10;;;;;;;;;;4877021;29;20117;-70
2023/01/07 05:43:38;;;;;;;29.42;17.80;;;;;;;;;;4893234;29;20036;-71
2023/01/07 05:46:04;;;;;;;31.20;17.38;;;;;;;;;;4899256;29;20036;-70
2023/01/07 05:48:30;;;;;;;35.38;19.88;;;;;;;;;;4884721;29;20522;-71
2023/01/07 05:50:55;;;;;;;36.03;17.77;;;;;;;;;;4892031;29;20028;-71
2023/01/07 05:53:21;;;;;;;39.15;18.67;;;;;;;;;;4902908;29;20044;-71
2023/01/07 05:55:47;;;;;;;37.50;18.30;;;;;;;;;;4903855;29;20117;-71
2023/01/07 05:58:13;;;;;;;40.70;19.50;;;;;;;;;;4902916;29;20077;-71
2023/01/07 06:00:39;;;;;;;37.75;17.10;;;;;;;;;;4902811;29;20048;-71
2023/01/07 06:03:05;;;;;;;35.22;19.52;;;;;;;;;;4905922;29;20061;-71
2023/01/07 06:05:31;;;;;;;38.63;21.05;;;;;;;;;;4902658;29;20040;-71
2023/01/07 06:07:57;;;;;;;42.20;21.48;;;;;;;;;;4902460;29;20037;-71
2023/01/07 06:10:23;;;;;;;42.17;21.77;;;;;;;;;;4903530;29;20104;-72
2023/01/07 06:12:50;;;;;;;43.50;20.13;;;;;;;;;;4902274;29;20103;-73
2023/01/07 06:15:16;;;;;;;42.75;20.25;;;;;;;;;;4903949;29;20080;-71
2023/01/07 06:17:42;;;;;;;35.38;19.13;;;;;;;;;;4903863;29;20563;-71
2023/01/07 06:20:08;;;;;;;34.90;19.33;;;;;;;;;;4903682;29;20108;-70
2023/01/07 06:22:35;;;;;;;37.97;20.23;;;;;;;;;;4904377;29;20040;-71
2023/01/07 06:25:01;;;;;;;35.35;19.17;;;;;;;;;;4904769;29;20036;-71
2023/01/07 06:27:27;;;;;;;34.90;18.35;;;;;;;;;;4903730;29;20063;-71
2023/01/07 06:29:53;;;;;;;34.10;18.45;;;;;;;;;;4903083;29;20071;-71
2023/01/07 06:32:19;;;;;;;37.13;19.33;;;;;;;;;;4901951;29;20048;-72
2023/01/07 06:34:45;;;;;;;35.88;19.63;;;;;;;;;;4902957;29;20138;-71
2023/01/07 06:37:10;;;;;;;34.00;21.42;;;;;;;;;;4903058;29;20513;-71
2023/01/07 06:39:36;;;;;;;46.50;24.45;;;;;;;;;;4902676;29;20028;-71
2023/01/07 06:42:02;;;;;;;49.22;24.00;;;;;;;;;;4903005;29;20037;-71
2023/01/07 06:44:28;;;;;;;37.63;20.77;;;;;;;;;;4902805;29;20064;-71
2023/01/07 06:46:54;;;;;;;44.80;23.80;;;;;;;;;;4901921;29;20448;-72
2023/01/07 06:49:19;;;;;;;40.72;24.20;;;;;;;;;;4900044;29;20111;-71
2023/01/07 06:51:45;;;;;;;41.70;25.13;;;;;;;;;;4902591;29;20037;-71
2023/01/07 06:54:11;;;;;;;38.95;23.55;;;;;;;;;;4902743;29;20512;-72
2023/01/07 06:56:37;;;;;;;36.88;22.10;;;;;;;;;;4894737;29;20045;-72
2023/01/07 06:59:03;;;;;;;40.80;23.88;;;;;;;;;;4907060;29;20088;-72
2023/01/07 07:01:28;;;;;;;36.90;23.05;;;;;;;;;;4910201;29;20044;-72
2023/01/07 07:03:54;;;;;;;40.90;22.98;;;;;;;;;;4918911;29;20047;-73
2023/01/07 07:06:20;;;;;;;38.55;22.70;;;;;;;;;;4918762;29;20040;-72
2023/01/07 07:08:46;;;;;;;36.60;22.27;;;;;;;;;;4918512;29;20028;-72
2023/01/07 07:11:11;;;;;;;35.63;20.50;;;;;;;;;;4918598;29;20067;-72
2023/01/07 07:13:37;;;;;;;34.03;21.55;;;;;;;;;;4915225;29;20032;-74
2023/01/07 07:16:03;;;;;;;40.13;22.80;;;;;;;;;;4899790;29;20540;-73
2023/01/07 07:18:29;;;;;;;36.60;22.10;;;;;;;;;;4906129;29;20454;-71
2023/01/07 07:20:57;;;;;;;36.97;22.55;;;;;;;;;;4899704;29;20028;-72
2023/01/07 07:23:23;;;;;;;41.72;23.52;;;;;;;;;;4899391;29;20402;-72
2023/01/07 07:25:49;;;;;;;33.42;22.23;;;;;;;;;;4899290;29;20040;-73
2023/01/07 07:28:16;;;;;;;39.65;23.27;;;;;;;;;;4899460;29;20080;-72
2023/01/07 07:30:42;;;;;;;39.67;25.45;;;;;;;;;;4898037;29;20080;-71
2023/01/07 07:33:07;;;;;;;40.10;25.42;;;;;;;;;;4898943;29;20024;-72
2023/01/07 07:35:33;;;;;;;43.33;26.13;;;;;;;;;;4897741;29;20043;-72
2023/01/07 07:37:59;;;;;;;44.33;25.77;;;;;;;;;;4897389;29;20112;-72
2023/01/07 07:40:26;;;;;;;42.75;26.50;;;;;;;;;;4897341;29;20028;-72
2023/01/07 07:42:52;;;;;;;41.13;26.05;;;;;;;;;;4897626;29;20088;-73
2023/01/07 07:45:18;;;;;;;45.22;27.75;;;;;;;;;;4899097;29;20456;-71
2023/01/07 07:47:45;;;;;;;51.15;26.73;;;;;;;;;;4898902;29;20032;-71
2023/01/07 07:50:11;;;;;;;49.47;27.92;;;;;;;;;;4909992;29;20171;-72
2023/01/07 07:52:36;;;;;;;52.95;30.73;;;;;;;;;;4898596;29;20056;-71
2023/01/07 07:55:03;;;;;;;51.45;29.33;;;;;;;;;;4892485;29;20041;-71
2023/01/07 07:57:28;;;;;;;51.45;30.92;;;;;;;;;;4879740;29;20112;-71
2023/01/07 07:59:54;;;;;;;48.13;29.60;;;;;;;;;;4881533;29;20048;-72
2023/01/07 08:02:20;;;;;;;48.53;29.90;;;;;;;;;;4890715;29;20051;-73
2023/01/07 08:04:46;;;;;;;54.40;33.35;;;;;;;;;;4895025;29;20051;-72
2023/01/07 08:07:12;;;;;;;53.75;32.15;;;;;;;;;;4898207;29;20427;-72
2023/01/07 08:09:38;;;;;;;47.85;28.50;;;;;;;;;;4897951;29;20036;-72
2023/01/07 08:12:04;;;;;;;53.05;30.30;;;;;;;;;;4896867;29;20040;-73
2023/01/07 08:14:30;;;;;;;53.83;31.25;;;;;;;;;;4893917;29;20128;-72
2023/01/07 08:16:56;;;;;;;62.95;32.35;;;;;;;;;;4890304;29;20500;-72
2023/01/07 08:19:22;;;;;;;45.83;28.80;;;;;;;;;;4896784;29;20043;-72
2023/01/07 08:21:49;;;;;;;48.42;30.25;;;;;;;;;;4897200;29;20469;-72
2023/01/07 08:24:15;;;;;;;46.40;28.55;;;;;;;;;;4897206;29;20040;-72
2023/01/07 08:26:41;;;;;;;48.80;27.42;;;;;;;;;;4897990;29;20129;-72
2023/01/07 08:29:06;;;;;;;63.78;35.13;;;;;;;;;;4895805;29;20378;-72
2023/01/07 08:31:32;;;;;;;47.53;28.20;;;;;;;;;;4897462;29;20029;-72
2023/01/07 08:33:58;;;;;;;46.33;25.70;;;;;;;;;;4898042;29;20209;-71
2023/01/07 08:36:23;;;;;;;42.70;23.95;;;;;;;;;;4895688;29;20475;-71
2023/01/07 08:38:54;;;;;;;44.05;23.30;;;;;;;;;;4894807;29;20064;-72
2023/01/07 08:41:22;;;;;;;41.38;23.52;;;;;;;;;;4889450;29;20067;-72
2023/01/07 08:43:47;;;;;;;46.30;23.45;;;;;;;;;;4896866;29;20032;-72
2023/01/07 08:46:13;;;;;;;38.65;21.83;;;;;;;;;;4896848;29;20051;-72
2023/01/07 08:48:39;;;;;;;43.05;22.90;;;;;;;;;;4903352;29;20089;-72
2023/01/07 08:51:06;;;;;;;45.35;26.65;;;;;;;;;;4894824;29;20558;-72
2023/01/07 08:53:32;;;;;;;37.05;22.08;;;;;;;;;;4896212;29;20031;-73
2023/01/07 08:55:58;;;;;;;35.20;22.30;;;;;;;;;;4895968;29;20029;-72
2023/01/07 08:58:24;;;;;;;37.65;21.95;;;;;;;;;;4894809;29;20088;-71
2023/01/07 09:00:51;;;;;;;35.30;20.92;;;;;;;;;;4895862;29;20032;-71
2023/01/07 09:03:17;;;;;;;41.22;23.98;;;;;;;;;;4895725;29;20052;-71
2023/01/07 09:05:45;;;;;;;43.03;23.95;;;;;;;;;;4895752;29;20050;-72
2023/01/07 09:08:10;;;;;;;43.20;23.33;;;;;;;;;;4896595;29;20135;-70
2023/01/07 09:10:36;;;;;;;40.33;21.60;;;;;;;;;;4895477;29;20127;-71
2023/01/07 09:13:02;;;;;;;41.47;23.70;;;;;;;;;;4897134;29;20031;-72
2023/01/07 09:15:28;;;;;;;40.65;20.48;;;;;;;;;;4898058;29;20119;-71
2023/01/07 09:17:55;;;;;;;37.97;17.75;;;;;;;;;;4896511;29;20174;-71
2023/01/07 09:20:21;;;;;;;31.80;16.13;;;;;;;;;;4891167;29;20120;-71
2023/01/07 09:22:47;;;;;;;27.08;15.70;;;;;;;;;;4892015;29;20115;-72
2023/01/07 09:25:13;;;;;;;31.83;16.52;;;;;;;;;;4896623;29;20043;-72
2023/01/07 09:27:39;;;;;;;40.10;17.38;;;;;;;;;;4896322;29;20406;-71
2023/01/07 09:30:08;;;;;;;22.00;14.48;;;;;;;;;;4896445;29;20390;-72
2023/01/07 09:32:34;;;;;;;28.52;15.93;;;;;;;;;;4896097;29;20047;-72
2023/01/07 09:35:02;;;;;;;21.77;15.02;;;;;;;;;;4895751;29;20040;-72
2023/01/07 09:37:27;;;;;;;24.42;15.13;;;;;;;;;;4896344;29;20546;-71
2023/01/07 09:39:53;;;;;;;26.98;17.20;;;;;;;;;;4896769;29;20091;-72
2023/01/07 09:42:42;;;;;;;31.15;16.45;;;;;;;;;;4896611;29;20111;-72
2023/01/07 09:45:32;;;;;;;32.20;18.90;;;;;;;;;;4896426;29;20076;-71
2023/01/07 09:47:59;;;;;;;30.15;20.10;;;;;;;;;;4913541;29;20042;-71
2023/01/07 09:50:52;;;;;;;32.58;19.10;;;;;;;;;;4914500;29;20024;-72
2023/01/07 09:53:31;;;;;;;20.60;13.07;;;;;;;;;;4915830;29;20043;-70
2023/01/07 09:55:59;;;;;;;23.95;13.80;;;;;;;;;;4915793;29;20107;-71
2023/01/07 09:58:25;;;;;;;22.92;12.13;;;;;;;;;;4915581;29;20107;-72
2023/01/07 10:01:35;;;;;;;17.75;10.40;;;;;;;;;;4897499;29;20069;-72
2023/01/07 10:04:19;;;;;;;19.70;11.00;;;;;;;;;;4895013;29;20040;-71
2023/01/07 10:07:09;;;;;;;15.82;8.95;;;;;;;;;;4896567;29;20129;-72
2023/01/07 10:09:54;;;;;;;20.67;10.68;;;;;;;;;;4896402;29;20047;-72
2023/01/07 10:12:59;;;;;;;21.85;11.18;;;;;;;;;;4896393;29;20100;-71
2023/01/07 10:15:43;;;;;;;23.60;12.75;;;;;;;;;;4897107;29;20406;-72
2023/01/07 10:18:11;;;;;;;20.90;11.23;;;;;;;;;;4897201;29;20122;-72
2023/01/07 10:20:49;;;;;;;23.48;11.70;;;;;;;;;;4896475;29;20025;-71
2023/01/07 10:23:22;;;;;;;18.73;10.60;;;;;;;;;;4895748;29;20037;-71
2023/01/07 10:25:57;;;;;;;16.55;9.45;;;;;;;;;;4895659;29;20395;-71
2023/01/07 10:28:43;;;;;;;17.38;9.43;;;;;;;;;;4893740;29;20116;-71
2023/01/07 10:31:16;;;;;;;17.00;11.07;;;;;;;;;;4891636;29;20036;-71
2023/01/07 10:33:44;;;;;;;21.70;11.20;;;;;;;;;;4899273;29;20047;-72
2023/01/07 10:36:25;;;;;;;19.70;10.65;;;;;;;;;;4881341;29;20055;-73
2023/01/07 10:39:07;;;;;;;15.55;9.63;;;;;;;;;;4896590;29;20047;-73
2023/01/07 10:42:20;;;;;;;19.92;11.30;;;;;;;;;;4898464;29;20040;-74
2023/01/07 10:44:52;;;;;;;17.40;11.10;;;;;;;;;;4896656;29;20044;-72
2023/01/07 10:47:42;;;;;;;13.43;7.90;;;;;;;;;;4898918;29;20131;-72
2023/01/07 10:50:45;;;;;;;16.13;9.02;;;;;;;;;;4901871;29;20078;-71
2023/01/07 10:53:50;;;;;;;17.95;10.45;;;;;;;;;;4898111;29;20036;-72
2023/01/07 10:56:29;;;;;;;15.50;9.23;;;;;;;;;;4898485;29;20068;-72
2023/01/07 10:58:54;;;;;;;15.50;8.18;;;;;;;;;;4898306;29;20051;-72
2023/01/07 11:01:38;;;;;;;11.57;6.95;;;;;;;;;;4898618;29;20020;-72
2023/01/07 11:04:13;;;;;;;17.20;8.50;;;;;;;;;;4895246;29;20047;-71
2023/01/07 11:06:55;;;;;;;17.25;7.35;;;;;;;;;;4898248;29;20032;-73
2023/01/07 11:09:41;;;;;;;15.02;9.00;;;;;;;;;;4896253;29;20033;-73
2023/01/07 11:12:23;;;;;;;11.05;7.68;;;;;;;;;;4898782;29;20048;-72
2023/01/07 11:14:50;;;;;;;14.82;8.25;;;;;;;;;;4897661;29;20109;-71
2023/01/07 11:17:34;;;;;;;14.13;7.70;;;;;;;;;;4898864;29;20032;-72
2023/01/07 11:20:00;;;;;;;14.45;8.38;;;;;;;;;;4898555;29;20522;-72
2023/01/07 11:22:30;;;;;;;18.30;8.75;;;;;;;;;;4897265;29;20037;-72
2023/01/07 11:24:58;;;;;;;13.27;7.97;;;;;;;;;;4898114;29;20032;-72
2023/01/07 11:27:27;;;;;;;19.67;7.70;;;;;;;;;;4897309;29;20035;-72
2023/01/07 11:30:06;;;;;;;19.20;8.02;;;;;;;;;;4897640;29;20466;-72
2023/01/07 11:32:41;;;;;;;13.15;7.82;;;;;;;;;;4899048;29;20044;-72
2023/01/07 11:35:18;;;;;;;11.05;7.13;;;;;;;;;;4898164;29;20042;-72
2023/01/07 11:37:46;;;;;;;13.60;7.75;;;;;;;;;;4897568;29;20048;-73
2023/01/07 11:40:12;;;;;;;12.75;7.15;;;;;;;;;;4896892;29;20029;-72
2023/01/07 11:42:58;;;;;;;11.80;7.13;;;;;;;;;;4896950;29;20044;-72
2023/01/07 11:45:46;;;;;;;9.32;5.57;;;;;;;;;;4896881;29;20032;-72
2023/01/07 11:48:27;;;;;;;10.32;5.95;;;;;;;;;;4860450;29;20139;-72
2023/01/07 11:50:53;;;;;;;13.93;8.48;;;;;;;;;;4896017;29;20036;-72
2023/01/07 11:53:19;;;;;;;15.48;8.02;;;;;;;;;;4897651;29;20020;-72
2023/01/07 11:55:58;;;;;;;17.00;8.80;;;;;;;;;;4896984;29;20624;-72
2023/01/07 11:58:27;;;;;;;18.20;9.98;;;;;;;;;;4897259;29;20039;-73
2023/01/07 12:01:10;;;;;;;15.80;8.55;;;;;;;;;;4897445;29;20107;-73
2023/01/07 12:04:04;;;;;;;15.20;7.88;;;;;;;;;;4897251;29;20063;-74
2023/01/07 12:06:31;;;;;;;;;;;;;;;;;;4890248;29;20108;-73
2023/01/07 12:09:06;;;;;;;12.38;8.38;;;;;;;;;;4904474;29;19919;-72
2023/01/07 12:11:36;;;;;;;15.20;9.20;;;;;;;;;;4915983;29;20040;-72
2023/01/07 12:14:25;;;;;;;15.60;8.57;;;;;;;;;;4904926;29;20092;-73
2023/01/07 12:16:52;;;;;;;15.65;8.57;;;;;;;;;;4895538;29;20072;-73
2023/01/07 12:19:33;;;;;;;15.10;7.78;;;;;;;;;;4896878;29;20029;-72
2023/01/07 12:22:25;;;;;;;14.60;8.13;;;;;;;;;;4896677;29;20388;-72
2023/01/07 12:25:05;;;;;;;11.68;8.27;;;;;;;;;;4896654;29;20044;-73
2023/01/07 12:27:43;;;;;;;14.43;8.07;;;;;;;;;;4896941;29;20036;-73
2023/01/07 12:30:21;;;;;;;16.13;9.60;;;;;;;;;;4896903;29;20036;-72
2023/01/07 12:33:14;;;;;;;13.23;8.32;;;;;;;;;;4896566;29;20047;-72
2023/01/07 12:35:42;;;;;;;13.75;8.95;;;;;;;;;;4896821;29;20040;-73
2023/01/07 12:38:35;;;;;;;15.15;8.88;;;;;;;;;;4891998;29;20107;-73
2023/01/07 12:41:10;;;;;;;15.77;9.20;;;;;;;;;;4896178;29;20092;-72
2023/01/07 12:43:42;;;;;;;12.98;7.07;;;;;;;;;;4879185;29;20052;-73
2023/01/07 12:46:14;;;;;;;11.80;6.65;;;;;;;;;;4876219;29;20048;-72
2023/01/07 12:49:03;;;;;;;13.23;7.57;;;;;;;;;;4878013;29;20033;-73
2023/01/07 12:51:49;;;;;;;14.88;8.18;;;;;;;;;;4877618;29;20044;-72
2023/01/07 12:54:21;;;;;;;11.88;6.18;;;;;;;;;;4867806;29;20048;-72
2023/01/07 12:56:55;;;;;;;9.57;5.95;;;;;;;;;;4876339;29;20131;-73
2023/01/07 12:59:40;;;;;;;11.88;6.70;;;;;;;;;;4883350;29;20059;-71
2023/01/07 13:02:26;;;;;;;13.90;7.82;;;;;;;;;;4894826;29;20065;-72
2023/01/07 13:05:04;;;;;;;11.93;6.53;;;;;;;;;;4882679;29;20139;-72
2023/01/07 13:07:55;;;;;;;11.02;6.32;;;;;;;;;;4878243;29;20056;-71
2023/01/07 13:10:29;;;;;;;10.43;6.57;;;;;;;;;;4874921;29;20064;-72
2023/01/07 13:13:05;;;;;;;10.57;6.22;;;;;;;;;;4877850;29;20041;-73
2023/01/07 13:15:34;;;;;;;12.73;6.65;;;;;;;;;;4876386;29;20403;-73
2023/01/07 13:18:09;;;;;;;11.75;5.72;;;;;;;;;;4859303;29;20113;-72
2023/01/07 13:21:11;;;;;;;11.80;5.60;;;;;;;;;;4876624;29;20044;-73
2023/01/07 13:23:48;;;;;;;11.40;6.50;;;;;;;;;;4874906;29;20168;-71
2023/01/07 13:26:46;;;;;;;9.45;5.05;;;;;;;;;;4877139;29;20036;-73
2023/01/07 13:29:28;;;;;;;13.43;6.47;;;;;;;;;;4876165;29;20440;-72
2023/01/07 13:32:25;;;;;;;9.65;4.95;;;;;;;;;;4876173;29;20025;-71
2023/01/07 13:35:12;;;;;;;17.65;9.32;;;;;;;;;;4875785;29;20063;-71
2023/01/07 13:37:44;;;;;;;11.98;5.95;;;;;;;;;;4876200;29;20440;-72
2023/01/07 13:40:31;;;;;;;11.45;5.78;;;;;;;;;;4875347;29;20136;-72
2023/01/07 13:43:26;;;;;;;9.32;5.47;;;;;;;;;;4878245;29;20033;-73
2023/01/07 13:45:58;;;;;;;15.23;6.28;;;;;;;;;;4878007;29;20037;-72
2023/01/07 13:48:26;;;;;;;10.57;6.72;;;;;;;;;;4877766;29;20428;-71
2023/01/07 13:51:03;;;;;;;12.10;5.90;;;;;;;;;;4875319;29;20043;-71
2023/01/07 13:53:47;;;;;;;14.25;7.72;;;;;;;;;;4878713;29;20109;-72
2023/01/07 13:56:34;;;;;;;12.13;6.50;;;;;;;;;;4878773;29;20033;-72
2023/01/07 13:59:00;;;;;;;10.10;5.78;;;;;;;;;;4878049;29;20403;-71
2023/01/07 14:01:52;;;;;;;10.07;5.68;;;;;;;;;;4878483;29;20389;-71
2023/01/07 14:05:06;;;;;;;11.60;6.75;;;;;;;;;;4878275;29;20049;-71
2023/01/07 14:07:49;;;;;;;10.65;5.80;;;;;;;;;;4881255;29;20041;-72
2023/01/07 14:10:31;;;;;;;9.65;5.95;;;;;;;;;;4882618;29;20063;-73
2023/01/07 14:13:12;;;;;;;9.82;5.45;;;;;;;;;;4882101;29;20052;-72
2023/01/07 14:16:12;;;;;;;12.85;7.18;;;;;;;;;;4881006;29;20158;-73
2023/01/07 14:18:50;;;;;;;14.57;7.78;;;;;;;;;;4880877;29;20112;-74
2023/01/07 14:21:54;;;;;;;37.45;20.73;;;;;;;;;;4884255;29;20131;-73
2023/01/07 14:24:32;;;;;;;69.50;35.25;;;;;;;;;;4880149;29;20041;-72
2023/01/07 14:27:26;;;;;;;42.58;22.63;;;;;;;;;;4893998;29;20055;-73
2023/01/07 14:29:53;;;;;;;16.63;7.55;;;;;;;;;;4898232;29;20123;-71
2023/01/07 14:32:36;;;;;;;15.25;7.95;;;;;;;;;;4899443;29;20530;-72
2023/01/07 14:35:20;;;;;;;13.23;6.75;;;;;;;;;;4899174;29;20033;-73
2023/01/07 14:37:48;;;;;;;12.73;6.10;;;;;;;;;;4898029;29;20051;-73
2023/01/07 14:40:27;;;;;;;10.57;5.93;;;;;;;;;;4898172;29;20455;-73
2023/01/07 14:42:55;;;;;;;10.32;5.43;;;;;;;;;;4898674;29;20044;-72
2023/01/07 14:45:39;;;;;;;11.88;6.65;;;;;;;;;;4898405;29;20064;-74
2023/01/07 14:48:07;;;;;;;11.27;6.72;;;;;;;;;;4898640;29;20051;-74
2023/01/07 14:50:45;;;;;;;14.35;6.50;;;;;;;;;;4898268;29;20028;-72
2023/01/07 14:53:36;;;;;;;11.98;6.78;;;;;;;;;;4879854;29;20507;-73
2023/01/07 14:56:07;;;;;;;16.83;8.45;;;;;;;;;;4883139;29;20172;-72
2023/01/07 14:58:56;;;;;;;14.70;8.77;;;;;;;;;;4898346;29;20436;-71